ADDS METAR Data INFO
IDs: Format: Raw Decoded Include TAF

Data at: 1748 UTC 21 Oct 2017

KZPH 211735Z AUTO 11007G10KT 10SM CLR 30/17 A3014 RMK AO2 T03030171
KZPH 211715Z AUTO 07010G16KT 10SM CLR 30/17 A3015 RMK AO2 T03010166
KZPH 211655Z AUTO 09010G15KT 060V120 10SM CLR 30/17 A3015 RMK AO2 T03010172
KZPH 211635Z AUTO 09009KT 10SM CLR 29/17 A3016 RMK AO2 T02920171
KZPH 211615Z AUTO 06007G16KT 10SM CLR 29/17 A3016 RMK AO2 T02880172
KZPH 211555Z AUTO 06012G17KT 10SM CLR 28/17 A3016 RMK AO2 T02830172
KZPH 211535Z AUTO 07012G18KT 10SM CLR 28/18 A3016 RMK AO2 T02840175
KZPH 211515Z AUTO 09010G15KT 10SM CLR 28/19 A3016 RMK AO2 T02790190
KZPH 211455Z AUTO 07009G14KT 10SM CLR 27/20 A3016 RMK AO2 T02700195
KZPH 211435Z AUTO 09007G15KT 10SM CLR 26/20 A3016 RMK AO2 T02620196
KZPH 211415Z AUTO 07013G17KT 10SM CLR 26/20 A3015 RMK AO2 T02580199
KZPH 211355Z AUTO 09009KT 10SM CLR 25/20 A3016 RMK AO2 T02490201
KZPH 211335Z AUTO 07007KT 10SM CLR 24/21 A3015 RMK AO2 T02350207
KZPH 211315Z AUTO 04004KT 10SM CLR 22/21 A3014 RMK AO2 T02190211
KZPH 211255Z AUTO 04004KT 10SM CLR 21/21 A3013 RMK AO2 T02070205
KZPH 211235Z AUTO 02004KT 10SM CLR 20/20 A3013 RMK AO2 T02020200
KZPH 211215Z AUTO 06003KT 7SM CLR 20/20 A3012 RMK AO2 T01970195
KZPH 211155Z AUTO 02004KT 10SM CLR 20/20 A3012 RMK AO2 T01980196 10206 20193
KZPH 211135Z AUTO 03004KT 20/20 A3011 RMK AO2 T01980196
KZPH 211115Z AUTO 04005KT 10SM CLR 20/20 A3011 RMK AO2 T01980196
KZPH 211055Z AUTO 04004KT 10SM CLR 20/20 A3011 RMK AO2 T01960195
KZPH 211035Z AUTO 03004KT 10SM CLR 20/20 A3010 RMK AO2 T01960195
KZPH 211015Z AUTO 03004KT 10SM CLR 20/20 A3010 RMK AO2 T01970195
KZPH 210955Z AUTO 04004KT 10SM CLR 20/20 A3009 RMK AO2 T01970195
KZPH 210935Z AUTO 04004KT 10SM CLR 20/19 A3009 RMK AO2 T01950193
KZPH 210915Z AUTO 04004KT 10SM CLR 20/19 A3009 RMK AO2 T01960194
KZPH 210855Z AUTO 03003KT 10SM CLR 20/20 A3009 RMK AO2 T02000196
KZPH 210835Z AUTO 03003KT 10SM CLR 20/20 A3008 RMK AO2 T02010196
KZPH 210815Z AUTO 04004KT 10SM CLR 20/20 A3008 RMK AO2 T02040197
KZPH 210755Z AUTO 05005KT 10SM CLR 21/20 A3008 RMK AO2 T02050200
KZPH 210735Z AUTO 04005KT 10SM CLR 20/20 A3009 RMK AO2 T02020197
KZPH 210715Z AUTO 03006KT 10SM CLR 20/20 A3009 RMK AO2 T02010195
KZPH 210655Z AUTO 04006KT 10SM CLR 20/19 A3009 RMK AO2 T01990194
KZPH 210635Z AUTO 04004KT 10SM CLR 20/19 A3010 RMK AO2 T01970191
KZPH 210615Z AUTO 03004KT 10SM CLR 20/19 A3010 RMK AO2 T01970190
KZPH 210555Z AUTO 03004KT 10SM CLR 20/19 A3011 RMK AO2 T02000192 10244 20198 403070198
KZPH 210515Z AUTO 03005KT 10SM CLR 20/19 A3011 RMK AO2 T02030193
KZPH 210455Z AUTO 04004KT 10SM CLR 20/19 A3012 RMK AO2 T02040191
KZPH 210435Z AUTO 03004KT 10SM CLR 21/19 A3013 RMK AO2 T02070192
KZPH 210415Z AUTO 04005KT 10SM CLR 21/19 A3013 RMK AO2 T02120194
KZPH 210355Z AUTO 05005KT 10SM CLR 22/20 A3013 RMK AO2 T02160195
KZPH 210335Z AUTO 05005KT 10SM CLR 22/20 A3013 RMK AO2 T02160195
KZPH 210315Z AUTO 06006KT 10SM CLR 22/20 A3013 RMK AO2 T02210195
KZPH 210255Z AUTO 05005KT 10SM CLR 23/20 A3012 RMK AO2 T02250195
KZPH 210235Z AUTO 06005KT 10SM CLR 23/20 A3012 RMK AO2 T02280196
KZPH 210215Z AUTO 06006KT 10SM CLR 23/20 A3012 RMK AO2 T02300195
KZPH 210155Z AUTO 06006KT 10SM CLR 23/20 A3011 RMK AO2 T02340195
KZPH 210135Z AUTO 06007KT 10SM CLR 24/19 A3011 RMK AO2 T02350193
KZPH 210115Z AUTO 07009KT 10SM CLR 24/19 A3011 RMK AO2 T02360191
KZPH 210055Z AUTO 06006KT 10SM CLR 24/19 A3010 RMK AO2 T02350186
KZPH 210035Z AUTO 06006KT 10SM CLR 23/18 A3010 RMK AO2 T02330182
KZPH 210015Z AUTO 06004KT 10SM CLR 24/18 A3010 RMK AO2 T02390182
KZPH 202355Z AUTO 06004KT 10SM CLR 25/18 A3009 RMK AO2 T02450181 10307 20245
KZPH 202335Z AUTO 06005KT 10SM CLR 25/18 A3008 RMK AO2 T02520182
KZPH 202315Z AUTO 06007KT 10SM CLR 26/18 A3008 RMK AO2 T02600184
KZPH 202255Z AUTO 06006KT 10SM CLR 27/19 A3007 RMK AO2 T02680186
KZPH 202235Z AUTO 05009KT 10SM CLR 28/19 A3007 RMK AO2 T02760186
KZPH 202215Z AUTO 06009G15KT 030V090 10SM CLR 28/19 A3006 RMK AO2 T02810186
KZPH 202155Z AUTO 06013G17KT 10SM CLR 29/18 A3006 RMK AO2 T02870181
KZPH 202135Z AUTO 05010KT 10SM CLR 29/18 A3006 RMK AO2 T02900180
KZPH 202115Z AUTO 06010G14KT 030V100 10SM SCT060 29/18 A3006 RMK AO2 T02900180
KZPH 202055Z AUTO 07009G15KT 10SM BKN050 29/18 A3007 RMK AO2 T02850178
KZPH 202035Z AUTO 07006G17KT 10SM SCT050 30/18 A3007 RMK AO2 LTG DSNT W T03010178
KZPH 202015Z AUTO 05013G20KT 10SM SCT050 30/18 A3008 RMK AO2 T03010178
KZPH 201955Z AUTO 06012KT 10SM SCT050 SCT055 30/19 A3007 RMK AO2 T02970185
KZPH 201935Z AUTO 06011G17KT 10SM BKN050 29/18 A3007 RMK AO2 T02900182
KZPH 201915Z AUTO 05011G15KT 10SM BKN050 30/19 A3007 RMK AO2 T02970187
KZPH 201855Z AUTO 07008G15KT 10SM SCT050 29/18 A3008 RMK AO2 T02910179
KZPH 201835Z AUTO 05011G18KT 10SM SCT047 30/19 A3008 RMK AO2 T03020187
KZPH 201815Z AUTO 03013G16KT 10SM SCT047 31/19 A3009 RMK AO2 T03060190
KZPH 201755Z AUTO 08012G15KT 10SM SCT047 31/19 A3011 RMK AO2 T03050188 10305 20205
KZPH 201735Z AUTO 04013G18KT 10SM SCT045 30/19 A3011 RMK AO2 T03010186
KZPH 201715Z AUTO 05013G20KT 10SM SCT045 30/19 A3012 RMK AO2 T02970186
KZPH 201655Z AUTO 04012G18KT 10SM CLR 29/19 A3013 RMK AO2 T02930189
KZPH 201635Z AUTO 07012G17KT 10SM CLR 29/18 A3013 RMK AO2 T02890184
KZPH 201615Z AUTO 07013G18KT 10SM CLR 29/19 A3014 RMK AO2 T02850185
KZPH 201555Z AUTO 07011G19KT 10SM SCT035 28/19 A3014 RMK AO2 T02820189
KZPH 201535Z AUTO 05013G20KT 10SM SCT033 SCT039 28/20 A3014 RMK AO2 T02790195
KZPH 201515Z AUTO 07013G18KT 10SM CLR 27/20 A3015 RMK AO2 T02690202
KZPH 201455Z AUTO 06010G19KT 10SM CLR 27/20 A3015 RMK AO2 T02670204
KZPH 201435Z AUTO 06007KT 10SM CLR 26/21 A3016 RMK AO2 T02600211
KZPH 201415Z AUTO 06007KT 10SM CLR 25/21 A3016 RMK AO2 T02510213
KZPH 201355Z AUTO 04004KT 10SM CLR 24/22 A3015 RMK AO2 T02410219
KZPH 201335Z AUTO 03007KT 10SM CLR 23/22 A3015 RMK AO2 T02290216
KZPH 201315Z AUTO 03005KT 10SM CLR 22/22 A3015 RMK AO2 T02200215
KZPH 201255Z AUTO 00000KT 10SM CLR 22/21 A3015 RMK AO2 T02150212
KZPH 201235Z AUTO 00000KT 5SM BR CLR 21/21 A3014 RMK AO2 T02080207
KZPH 201215Z AUTO 00000KT 5SM BR SCT002 21/21 A3013 RMK AO2 T02050205
KZPH 201155Z AUTO 00000KT 5SM BR BKN002 21/21 A3013 RMK AO2 T02050205 10215 20205
KZPH 201135Z AUTO 00000KT 7SM SCT002 21/21 A3013 RMK AO2 T02050205
KZPH 201115Z AUTO 00000KT 7SM BKN002 21/21 A3012 RMK AO2 T02060205
KZPH 201055Z AUTO 00000KT 7SM BKN002 21/21 A3012 RMK AO2 T02080206
KZPH 201035Z AUTO 00000KT 7SM BKN002 21/21 A3011 RMK AO2 T02080206
KZPH 201015Z AUTO 00000KT 7SM BKN002 21/21 A3011 RMK AO2 T02080206
KZPH 200955Z AUTO 00000KT 7SM BKN002 21/21 A3011 RMK AO2 T02080206
KZPH 200915Z AUTO 00000KT 10SM CLR 21/21 A3010 RMK AO2 T02070205
KZPH 200835Z AUTO 02003KT 10SM CLR 21/21 A3010 RMK AO2 T02060205
KZPH 200815Z AUTO 02003KT 10SM CLR 21/21 A3010 RMK AO2 T02080205
KZPH 200755Z AUTO 02005KT 10SM CLR 21/21 A3010 RMK AO2 T02100206
KZPH 200735Z AUTO 02004KT 10SM CLR 21/21 A3011 RMK AO2 T02100206
KZPH 200715Z AUTO 01003KT 10SM CLR 21/21 A3011 RMK AO2 T02110207
KZPH 200655Z AUTO 01004KT 10SM CLR 21/21 A3012 RMK AO2 T02110207
KZPH 200635Z AUTO 02003KT 10SM CLR 21/21 A3012 RMK AO2 T02120208
KZPH 200615Z AUTO 02003KT 10SM CLR 22/21 A3012 RMK AO2 T02150208
KZPH 200555Z AUTO 03004KT 10SM CLR 22/21 A3012 RMK AO2 T02160210 10245 20215 403080192